sensor_id;sensor_type;location;lat;lon;timestamp;temperature;humidity
76878;DHT22;65843;50.692;12.844;2024-01-11T00:00:15;18.50;50.00
76878;DHT22;65843;50.692;12.844;2024-01-11T00:01:17;18.50;49.70
76878;DHT22;65843;50.692;12.844;2024-01-11T00:02:18;18.50;49.90
76878;DHT22;65843;50.692;12.844;2024-01-11T00:03:19;18.50;50.30
76878;DHT22;65843;50.692;12.844;2024-01-11T00:04:21;18.60;49.90
76878;DHT22;65843;50.692;12.844;2024-01-11T00:05:22;18.60;49.60
76878;DHT22;65843;50.692;12.844;2024-01-11T00:06:22;18.50;50.00
76878;DHT22;65843;50.692;12.844;2024-01-11T00:07:23;18.50;50.10
76878;DHT22;65843;50.692;12.844;2024-01-11T00:08:24;18.60;49.70
76878;DHT22;65843;50.692;12.844;2024-01-11T00:09:25;18.50;50.30
76878;DHT22;65843;50.692;12.844;2024-01-11T00:10:26;18.50;49.80
76878;DHT22;65843;50.692;12.844;2024-01-11T00:11:27;18.50;49.70
76878;DHT22;65843;50.692;12.844;2024-01-11T00:12:28;18.50;50.00
76878;DHT22;65843;50.692;12.844;2024-01-11T00:13:28;18.60;49.70
76878;DHT22;65843;50.692;12.844;2024-01-11T00:14:29;18.50;50.00
76878;DHT22;65843;50.692;12.844;2024-01-11T00:15:30;18.50;49.80
76878;DHT22;65843;50.692;12.844;2024-01-11T00:16:31;18.50;49.90
76878;DHT22;65843;50.692;12.844;2024-01-11T00:17:32;18.50;50.00
76878;DHT22;65843;50.692;12.844;2024-01-11T00:18:33;18.50;50.00
76878;DHT22;65843;50.692;12.844;2024-01-11T00:19:33;18.50;49.90
76878;DHT22;65843;50.692;12.844;2024-01-11T00:20:34;18.50;50.10
76878;DHT22;65843;50.692;12.844;2024-01-11T00:21:35;18.50;49.80
76878;DHT22;65843;50.692;12.844;2024-01-11T00:22:36;18.50;49.80
76878;DHT22;65843;50.692;12.844;2024-01-11T00:23:37;18.50;50.40
76878;DHT22;65843;50.692;12.844;2024-01-11T00:24:38;18.50;50.10
76878;DHT22;65843;50.692;12.844;2024-01-11T00:25:39;18.50;50.20
76878;DHT22;65843;50.692;12.844;2024-01-11T00:26:40;18.50;50.00
76878;DHT22;65843;50.692;12.844;2024-01-11T00:27:42;18.50;49.80
76878;DHT22;65843;50.692;12.844;2024-01-11T00:28:43;18.50;49.90
76878;DHT22;65843;50.692;12.844;2024-01-11T00:29:43;18.50;50.10
76878;DHT22;65843;50.692;12.844;2024-01-11T00:30:44;18.50;50.00
76878;DHT22;65843;50.692;12.844;2024-01-11T00:31:45;18.50;49.90
76878;DHT22;65843;50.692;12.844;2024-01-11T00:32:46;18.50;50.40
76878;DHT22;65843;50.692;12.844;2024-01-11T00:33:47;18.50;50.20
76878;DHT22;65843;50.692;12.844;2024-01-11T00:34:48;18.50;50.10
76878;DHT22;65843;50.692;12.844;2024-01-11T00:35:49;18.50;50.30
76878;DHT22;65843;50.692;12.844;2024-01-11T00:36:49;18.40;50.40
76878;DHT22;65843;50.692;12.844;2024-01-11T00:37:50;18.40;50.50
76878;DHT22;65843;50.692;12.844;2024-01-11T00:38:51;18.50;50.30
76878;DHT22;65843;50.692;12.844;2024-01-11T00:39:52;18.40;50.50
76878;DHT22;65843;50.692;12.844;2024-01-11T00:40:53;18.40;50.40
76878;DHT22;65843;50.692;12.844;2024-01-11T00:41:54;18.50;50.20
76878;DHT22;65843;50.692;12.844;2024-01-11T00:42:55;18.50;50.40
76878;DHT22;65843;50.692;12.844;2024-01-11T00:43:56;18.50;50.20
76878;DHT22;65843;50.692;12.844;2024-01-11T00:44:57;18.50;50.40
76878;DHT22;65843;50.692;12.844;2024-01-11T00:45:58;18.50;50.60
76878;DHT22;65843;50.692;12.844;2024-01-11T00:46:58;18.50;51.20
76878;DHT22;65843;50.692;12.844;2024-01-11T00:47:59;18.50;51.00
76878;DHT22;65843;50.692;12.844;2024-01-11T00:49:00;18.50;50.70
76878;DHT22;65843;50.692;12.844;2024-01-11T00:50:01;18.50;51.00
76878;DHT22;65843;50.692;12.844;2024-01-11T00:51:03;18.50;51.40
76878;DHT22;65843;50.692;12.844;2024-01-11T00:52:04;18.50;51.00
76878;DHT22;65843;50.692;12.844;2024-01-11T00:53:05;18.50;51.00
76878;DHT22;65843;50.692;12.844;2024-01-11T00:54:06;18.50;50.80
76878;DHT22;65843;50.692;12.844;2024-01-11T00:55:07;18.50;50.70
76878;DHT22;65843;50.692;12.844;2024-01-11T00:56:18;18.50;50.70
76878;DHT22;65843;50.692;12.844;2024-01-11T00:57:19;18.50;50.60
76878;DHT22;65843;50.692;12.844;2024-01-11T00:58:19;18.50;50.50
76878;DHT22;65843;50.692;12.844;2024-01-11T00:59:20;18.50;50.70
76878;DHT22;65843;50.692;12.844;2024-01-11T01:00:21;18.50;50.40
76878;DHT22;65843;50.692;12.844;2024-01-11T01:01:22;18.50;50.60
76878;DHT22;65843;50.692;12.844;2024-01-11T01:02:23;18.50;50.90
76878;DHT22;65843;50.692;12.844;2024-01-11T01:03:24;18.50;50.90
76878;DHT22;65843;50.692;12.844;2024-01-11T01:04:25;18.50;50.90
76878;DHT22;65843;50.692;12.844;2024-01-11T01:05:25;18.60;50.80
76878;DHT22;65843;50.692;12.844;2024-01-11T01:06:26;18.60;50.70
76878;DHT22;65843;50.692;12.844;2024-01-11T01:07:27;18.60;50.70
76878;DHT22;65843;50.692;12.844;2024-01-11T01:08:28;18.60;50.80
76878;DHT22;65843;50.692;12.844;2024-01-11T01:09:29;18.60;50.70
76878;DHT22;65843;50.692;12.844;2024-01-11T01:10:31;18.60;50.70
76878;DHT22;65843;50.692;12.844;2024-01-11T01:11:32;18.60;50.90
76878;DHT22;65843;50.692;12.844;2024-01-11T01:12:33;18.60;50.80
76878;DHT22;65843;50.692;12.844;2024-01-11T01:13:34;18.60;51.00
76878;DHT22;65843;50.692;12.844;2024-01-11T01:14:34;18.60;51.10
76878;DHT22;65843;50.692;12.844;2024-01-11T01:15:35;18.60;51.10
76878;DHT22;65843;50.692;12.844;2024-01-11T01:16:36;18.60;51.20
76878;DHT22;65843;50.692;12.844;2024-01-11T01:17:37;18.60;51.30
76878;DHT22;65843;50.692;12.844;2024-01-11T01:18:38;18.60;50.90
76878;DHT22;65843;50.692;12.844;2024-01-11T01:19:39;18.60;51.20
76878;DHT22;65843;50.692;12.844;2024-01-11T01:20:39;18.60;51.10
76878;DHT22;65843;50.692;12.844;2024-01-11T01:21:40;18.60;51.00
76878;DHT22;65843;50.692;12.844;2024-01-11T01:22:41;18.60;51.10
76878;DHT22;65843;50.692;12.844;2024-01-11T01:23:42;18.60;51.00
76878;DHT22;65843;50.692;12.844;2024-01-11T01:24:43;18.60;51.00
76878;DHT22;65843;50.692;12.844;2024-01-11T01:25:44;18.60;50.90
76878;DHT22;65843;50.692;12.844;2024-01-11T01:26:45;18.60;51.10
76878;DHT22;65843;50.692;12.844;2024-01-11T01:27:46;18.60;51.00
76878;DHT22;65843;50.692;12.844;2024-01-11T01:28:47;18.60;50.90
76878;DHT22;65843;50.692;12.844;2024-01-11T01:29:48;18.60;51.00
76878;DHT22;65843;50.692;12.844;2024-01-11T01:30:49;18.60;50.80
76878;DHT22;65843;50.692;12.844;2024-01-11T01:31:50;18.60;50.90
76878;DHT22;65843;50.692;12.844;2024-01-11T01:32:51;18.60;51.10
76878;DHT22;65843;50.692;12.844;2024-01-11T01:33:52;18.60;51.10
76878;DHT22;65843;50.692;12.844;2024-01-11T01:34:53;18.60;50.90
76878;DHT22;65843;50.692;12.844;2024-01-11T01:35:54;18.60;51.20
76878;DHT22;65843;50.692;12.844;2024-01-11T01:36:54;18.60;51.20
76878;DHT22;65843;50.692;12.844;2024-01-11T01:37:55;18.60;51.10
76878;DHT22;65843;50.692;12.844;2024-01-11T01:38:56;18.60;51.50
76878;DHT22;65843;50.692;12.844;2024-01-11T01:39:57;18.60;51.40
76878;DHT22;65843;50.692;12.844;2024-01-11T01:40:58;18.60;51.60
76878;DHT22;65843;50.692;12.844;2024-01-11T01:41:59;18.60;51.60
76878;DHT22;65843;50.692;12.844;2024-01-11T01:43:00;18.60;51.50
76878;DHT22;65843;50.692;12.844;2024-01-11T01:44:00;18.60;51.60
76878;DHT22;65843;50.692;12.844;2024-01-11T01:45:01;18.60;51.80
76878;DHT22;65843;50.692;12.844;2024-01-11T01:46:03;18.60;51.80
76878;DHT22;65843;50.692;12.844;2024-01-11T01:47:04;18.60;51.50
76878;DHT22;65843;50.692;12.844;2024-01-11T01:48:05;18.70;51.80
76878;DHT22;65843;50.692;12.844;2024-01-11T01:49:06;18.60;51.80
76878;DHT22;65843;50.692;12.844;2024-01-11T01:50:08;18.60;51.70
76878;DHT22;65843;50.692;12.844;2024-01-11T01:51:10;18.70;51.80
76878;DHT22;65843;50.692;12.844;2024-01-11T01:52:11;18.70;52.00
76878;DHT22;65843;50.692;12.844;2024-01-11T01:53:14;18.70;51.70
76878;DHT22;65843;50.692;12.844;2024-01-11T01:54:16;18.70;51.60
76878;DHT22;65843;50.692;12.844;2024-01-11T01:55:17;18.60;51.50
76878;DHT22;65843;50.692;12.844;2024-01-11T01:56:19;18.60;51.60
76878;DHT22;65843;50.692;12.844;2024-01-11T01:57:20;18.70;51.60
76878;DHT22;65843;50.692;12.844;2024-01-11T01:58:21;18.70;51.70
76878;DHT22;65843;50.692;12.844;2024-01-11T01:59:22;18.70;51.70
76878;DHT22;65843;50.692;12.844;2024-01-11T02:00:24;18.70;51.50
76878;DHT22;65843;50.692;12.844;2024-01-11T02:01:25;18.70;51.50
76878;DHT22;65843;50.692;12.844;2024-01-11T02:02:28;18.70;51.50
76878;DHT22;65843;50.692;12.844;2024-01-11T02:03:31;18.70;51.40
76878;DHT22;65843;50.692;12.844;2024-01-11T02:04:32;18.70;51.50
76878;DHT22;65843;50.692;12.844;2024-01-11T02:05:33;18.70;52.30
76878;DHT22;65843;50.692;12.844;2024-01-11T02:06:34;18.70;52.70
76878;DHT22;65843;50.692;12.844;2024-01-11T02:07:35;18.80;52.30
76878;DHT22;65843;50.692;12.844;2024-01-11T02:08:36;18.80;52.20
76878;DHT22;65843;50.692;12.844;2024-01-11T02:09:37;18.80;52.10
76878;DHT22;65843;50.692;12.844;2024-01-11T02:10:38;18.80;52.00
76878;DHT22;65843;50.692;12.844;2024-01-11T02:11:40;18.80;51.90
76878;DHT22;65843;50.692;12.844;2024-01-11T02:12:41;18.80;51.80
76878;DHT22;65843;50.692;12.844;2024-01-11T02:13:42;18.80;51.70
76878;DHT22;65843;50.692;12.844;2024-01-11T02:14:44;18.80;51.50
76878;DHT22;65843;50.692;12.844;2024-01-11T02:15:45;18.80;51.50
76878;DHT22;65843;50.692;12.844;2024-01-11T02:16:46;18.80;51.40
76878;DHT22;65843;50.692;12.844;2024-01-11T02:17:47;18.80;51.20
76878;DHT22;65843;50.692;12.844;2024-01-11T02:18:47;18.80;51.30
76878;DHT22;65843;50.692;12.844;2024-01-11T02:19:48;18.80;51.20
76878;DHT22;65843;50.692;12.844;2024-01-11T02:20:49;18.80;51.60
76878;DHT22;65843;50.692;12.844;2024-01-11T02:21:51;18.80;51.50
76878;DHT22;65843;50.692;12.844;2024-01-11T02:22:55;18.80;51.60
76878;DHT22;65843;50.692;12.844;2024-01-11T02:24:03;18.80;51.50
76878;DHT22;65843;50.692;12.844;2024-01-11T02:25:04;18.80;51.40
76878;DHT22;65843;50.692;12.844;2024-01-11T02:26:05;18.70;51.40
76878;DHT22;65843;50.692;12.844;2024-01-11T02:27:06;18.70;51.50
76878;DHT22;65843;50.692;12.844;2024-01-11T02:28:07;18.80;51.50
76878;DHT22;65843;50.692;12.844;2024-01-11T02:29:09;18.70;51.50
76878;DHT22;65843;50.692;12.844;2024-01-11T02:30:10;18.70;51.90
76878;DHT22;65843;50.692;12.844;2024-01-11T02:31:13;18.70;51.50
76878;DHT22;65843;50.692;12.844;2024-01-11T02:32:15;18.70;51.80
76878;DHT22;65843;50.692;12.844;2024-01-11T02:33:15;18.70;51.50
76878;DHT22;65843;50.692;12.844;2024-01-11T02:34:17;18.70;51.90
76878;DHT22;65843;50.692;12.844;2024-01-11T02:35:19;18.70;52.00
76878;DHT22;65843;50.692;12.844;2024-01-11T02:36:20;18.80;52.00
76878;DHT22;65843;50.692;12.844;2024-01-11T02:37:21;18.80;52.50
76878;DHT22;65843;50.692;12.844;2024-01-11T02:38:22;18.80;52.90
76878;DHT22;65843;50.692;12.844;2024-01-11T02:39:23;18.80;52.50
76878;DHT22;65843;50.692;12.844;2024-01-11T02:40:25;18.80;52.60
76878;DHT22;65843;50.692;12.844;2024-01-11T02:41:26;18.80;52.30
76878;DHT22;65843;50.692;12.844;2024-01-11T02:42:27;18.80;51.70
76878;DHT22;65843;50.692;12.844;2024-01-11T02:43:28;18.80;51.90
76878;DHT22;65843;50.692;12.844;2024-01-11T02:44:29;18.80;52.30
76878;DHT22;65843;50.692;12.844;2024-01-11T02:45:30;18.80;51.70
76878;DHT22;65843;50.692;12.844;2024-01-11T02:46:31;18.80;52.60
76878;DHT22;65843;50.692;12.844;2024-01-11T02:47:32;18.70;51.80
76878;DHT22;65843;50.692;12.844;2024-01-11T02:48:32;18.70;51.50
76878;DHT22;65843;50.692;12.844;2024-01-11T02:49:33;18.70;52.20
76878;DHT22;65843;50.692;12.844;2024-01-11T02:50:34;18.70;52.20
76878;DHT22;65843;50.692;12.844;2024-01-11T02:51:35;18.70;51.90
76878;DHT22;65843;50.692;12.844;2024-01-11T02:52:37;18.70;52.10
76878;DHT22;65843;50.692;12.844;2024-01-11T02:53:38;18.70;52.20
76878;DHT22;65843;50.692;12.844;2024-01-11T02:54:38;18.70;52.30
76878;DHT22;65843;50.692;12.844;2024-01-11T02:55:39;18.70;52.30
76878;DHT22;65843;50.692;12.844;2024-01-11T02:56:40;18.70;52.50
76878;DHT22;65843;50.692;12.844;2024-01-11T02:57:42;18.70;52.40
76878;DHT22;65843;50.692;12.844;2024-01-11T02:58:43;18.70;52.10
76878;DHT22;65843;50.692;12.844;2024-01-11T02:59:44;18.70;52.10
76878;DHT22;65843;50.692;12.844;2024-01-11T03:00:45;18.70;52.20
76878;DHT22;65843;50.692;12.844;2024-01-11T03:01:46;18.70;52.10
76878;DHT22;65843;50.692;12.844;2024-01-11T03:02:47;18.70;52.30
76878;DHT22;65843;50.692;12.844;2024-01-11T03:03:48;18.70;52.20
76878;DHT22;65843;50.692;12.844;2024-01-11T03:04:48;18.70;52.20
76878;DHT22;65843;50.692;12.844;2024-01-11T03:05:49;18.70;52.00
76878;DHT22;65843;50.692;12.844;2024-01-11T03:06:50;18.70;52.40
76878;DHT22;65843;50.692;12.844;2024-01-11T03:07:51;18.70;52.50
76878;DHT22;65843;50.692;12.844;2024-01-11T03:08:52;18.70;52.20
76878;DHT22;65843;50.692;12.844;2024-01-11T03:09:53;18.70;52.20
76878;DHT22;65843;50.692;12.844;2024-01-11T03:10:54;18.70;52.30
76878;DHT22;65843;50.692;12.844;2024-01-11T03:11:55;18.70;52.30
76878;DHT22;65843;50.692;12.844;2024-01-11T03:12:56;18.70;52.10
76878;DHT22;65843;50.692;12.844;2024-01-11T03:13:58;18.60;52.40
76878;DHT22;65843;50.692;12.844;2024-01-11T03:14:59;18.70;52.20
76878;DHT22;65843;50.692;12.844;2024-01-11T03:16:01;18.60;52.10
76878;DHT22;65843;50.692;12.844;2024-01-11T03:17:01;18.70;52.00
76878;DHT22;65843;50.692;12.844;2024-01-11T03:18:02;18.70;52.40
76878;DHT22;65843;50.692;12.844;2024-01-11T03:19:03;18.60;52.40
76878;DHT22;65843;50.692;12.844;2024-01-11T03:20:04;18.60;52.50
76878;DHT22;65843;50.692;12.844;2024-01-11T03:21:06;18.60;52.30
76878;DHT22;65843;50.692;12.844;2024-01-11T03:22:07;18.60;52.30
76878;DHT22;65843;50.692;12.844;2024-01-11T03:23:26;18.60;52.00
76878;DHT22;65843;50.692;12.844;2024-01-11T03:24:27;18.60;52.30
76878;DHT22;65843;50.692;12.844;2024-01-11T03:25:29;18.60;52.40
76878;DHT22;65843;50.692;12.844;2024-01-11T03:26:30;18.70;52.10
76878;DHT22;65843;50.692;12.844;2024-01-11T03:27:30;18.60;52.40
76878;DHT22;65843;50.692;12.844;2024-01-11T03:28:31;18.60;52.50
76878;DHT22;65843;50.692;12.844;2024-01-11T03:29:32;18.60;52.50
76878;DHT22;65843;50.692;12.844;2024-01-11T03:30:34;18.60;52.60
76878;DHT22;65843;50.692;12.844;2024-01-11T03:31:34;18.60;52.50
76878;DHT22;65843;50.692;12.844;2024-01-11T03:32:35;18.60;52.80
76878;DHT22;65843;50.692;12.844;2024-01-11T03:33:36;18.60;52.60
76878;DHT22;65843;50.692;12.844;2024-01-11T03:34:37;18.60;52.60
76878;DHT22;65843;50.692;12.844;2024-01-11T03:35:38;18.60;52.70
76878;DHT22;65843;50.692;12.844;2024-01-11T03:36:44;18.60;52.60
76878;DHT22;65843;50.692;12.844;2024-01-11T03:37:45;18.60;52.40
76878;DHT22;65843;50.692;12.844;2024-01-11T03:38:46;18.60;52.50
76878;DHT22;65843;50.692;12.844;2024-01-11T03:39:47;18.60;52.70
76878;DHT22;65843;50.692;12.844;2024-01-11T03:40:48;18.60;52.80
76878;DHT22;65843;50.692;12.844;2024-01-11T03:41:48;18.60;52.70
76878;DHT22;65843;50.692;12.844;2024-01-11T03:42:49;18.60;52.60
76878;DHT22;65843;50.692;12.844;2024-01-11T03:43:50;18.60;52.50
76878;DHT22;65843;50.692;12.844;2024-01-11T03:44:51;18.60;52.50
76878;DHT22;65843;50.692;12.844;2024-01-11T03:45:52;18.60;52.30
76878;DHT22;65843;50.692;12.844;2024-01-11T03:46:53;18.60;52.10
76878;DHT22;65843;50.692;12.844;2024-01-11T03:47:54;18.60;52.20
76878;DHT22;65843;50.692;12.844;2024-01-11T03:48:55;18.70;52.50
76878;DHT22;65843;50.692;12.844;2024-01-11T03:49:57;18.70;51.90
76878;DHT22;65843;50.692;12.844;2024-01-11T03:50:58;18.70;52.20
76878;DHT22;65843;50.692;12.844;2024-01-11T03:51:59;18.70;52.00
76878;DHT22;65843;50.692;12.844;2024-01-11T03:52:59;18.70;52.10
76878;DHT22;65843;50.692;12.844;2024-01-11T03:54:00;18.70;52.10
76878;DHT22;65843;50.692;12.844;2024-01-11T03:55:01;18.70;52.00
76878;DHT22;65843;50.692;12.844;2024-01-11T03:56:02;18.70;52.00
76878;DHT22;65843;50.692;12.844;2024-01-11T03:57:04;18.70;52.10
76878;DHT22;65843;50.692;12.844;2024-01-11T03:58:05;18.70;52.50
76878;DHT22;65843;50.692;12.844;2024-01-11T03:59:06;18.70;52.20
76878;DHT22;65843;50.692;12.844;2024-01-11T04:00:07;18.70;52.00
76878;DHT22;65843;50.692;12.844;2024-01-11T04:01:08;18.70;51.90
76878;DHT22;65843;50.692;12.844;2024-01-11T04:02:10;18.70;52.40
76878;DHT22;65843;50.692;12.844;2024-01-11T04:03:11;18.70;51.90
76878;DHT22;65843;50.692;12.844;2024-01-11T04:04:12;18.70;51.80
76878;DHT22;65843;50.692;12.844;2024-01-11T04:05:13;18.70;51.80
76878;DHT22;65843;50.692;12.844;2024-01-11T04:06:21;18.70;51.70
76878;DHT22;65843;50.692;12.844;2024-01-11T04:07:22;18.70;52.00
76878;DHT22;65843;50.692;12.844;2024-01-11T04:08:23;18.70;51.80
76878;DHT22;65843;50.692;12.844;2024-01-11T04:09:24;18.70;52.00
76878;DHT22;65843;50.692;12.844;2024-01-11T04:10:25;18.70;52.20
76878;DHT22;65843;50.692;12.844;2024-01-11T04:11:28;18.70;52.30
76878;DHT22;65843;50.692;12.844;2024-01-11T04:12:29;18.70;51.90
76878;DHT22;65843;50.692;12.844;2024-01-11T04:13:31;18.70;51.90
76878;DHT22;65843;50.692;12.844;2024-01-11T04:14:31;18.70;52.20
76878;DHT22;65843;50.692;12.844;2024-01-11T04:15:32;18.70;52.50
76878;DHT22;65843;50.692;12.844;2024-01-11T04:16:33;18.70;52.50
76878;DHT22;65843;50.692;12.844;2024-01-11T04:17:34;18.70;52.60
76878;DHT22;65843;50.692;12.844;2024-01-11T04:18:35;18.70;52.50
76878;DHT22;65843;50.692;12.844;2024-01-11T04:19:36;18.70;52.50
76878;DHT22;65843;50.692;12.844;2024-01-11T04:20:37;18.70;52.40
76878;DHT22;65843;50.692;12.844;2024-01-11T04:21:38;18.70;52.30
76878;DHT22;65843;50.692;12.844;2024-01-11T04:22:41;18.60;52.80
76878;DHT22;65843;50.692;12.844;2024-01-11T04:23:42;18.60;52.60
76878;DHT22;65843;50.692;12.844;2024-01-11T04:24:43;18.70;52.80
76878;DHT22;65843;50.692;12.844;2024-01-11T04:25:44;18.60;52.50
76878;DHT22;65843;50.692;12.844;2024-01-11T04:26:45;18.60;52.80
76878;DHT22;65843;50.692;12.844;2024-01-11T04:27:45;18.60;52.80
76878;DHT22;65843;50.692;12.844;2024-01-11T04:28:46;18.60;52.40
76878;DHT22;65843;50.692;12.844;2024-01-11T04:29:48;18.70;52.90
76878;DHT22;65843;50.692;12.844;2024-01-11T04:30:49;18.60;52.30
76878;DHT22;65843;50.692;12.844;2024-01-11T04:31:50;18.60;52.40
76878;DHT22;65843;50.692;12.844;2024-01-11T04:32:51;18.60;53.10
76878;DHT22;65843;50.692;12.844;2024-01-11T04:33:51;18.60;52.70
76878;DHT22;65843;50.692;12.844;2024-01-11T04:34:52;18.60;52.60
76878;DHT22;65843;50.692;12.844;2024-01-11T04:35:53;18.70;52.60
76878;DHT22;65843;50.692;12.844;2024-01-11T04:36:54;18.70;53.00
76878;DHT22;65843;50.692;12.844;2024-01-11T04:37:55;18.60;53.00
76878;DHT22;65843;50.692;12.844;2024-01-11T04:38:56;18.70;52.50
76878;DHT22;65843;50.692;12.844;2024-01-11T04:39:56;18.70;52.90
76878;DHT22;65843;50.692;12.844;2024-01-11T04:41:00;18.70;52.50
76878;DHT22;65843;50.692;12.844;2024-01-11T04:42:01;18.70;52.60
76878;DHT22;65843;50.692;12.844;2024-01-11T04:43:02;18.70;52.50
76878;DHT22;65843;50.692;12.844;2024-01-11T04:44:04;18.70;52.50
76878;DHT22;65843;50.692;12.844;2024-01-11T04:45:05;18.70;53.00
76878;DHT22;65843;50.692;12.844;2024-01-11T04:46:19;18.70;52.50
76878;DHT22;65843;50.692;12.844;2024-01-11T04:47:20;18.70;52.50
76878;DHT22;65843;50.692;12.844;2024-01-11T04:48:21;18.70;53.20
76878;DHT22;65843;50.692;12.844;2024-01-11T04:49:22;18.70;52.90
76878;DHT22;65843;50.692;12.844;2024-01-11T04:50:23;18.70;52.90
76878;DHT22;65843;50.692;12.844;2024-01-11T04:51:24;18.70;52.90
76878;DHT22;65843;50.692;12.844;2024-01-11T04:52:25;18.70;52.80
76878;DHT22;65843;50.692;12.844;2024-01-11T04:53:26;18.70;52.50
76878;DHT22;65843;50.692;12.844;2024-01-11T04:54:26;18.70;52.70
76878;DHT22;65843;50.692;12.844;2024-01-11T04:55:27;18.70;52.60
76878;DHT22;65843;50.692;12.844;2024-01-11T04:56:28;18.70;52.80
76878;DHT22;65843;50.692;12.844;2024-01-11T04:57:30;18.70;52.80
76878;DHT22;65843;50.692;12.844;2024-01-11T04:58:31;18.70;52.40
76878;DHT22;65843;50.692;12.844;2024-01-11T04:59:32;18.70;52.40
76878;DHT22;65843;50.692;12.844;2024-01-11T05:00:33;18.70;52.50
76878;DHT22;65843;50.692;12.844;2024-01-11T05:01:33;18.70;52.50
76878;DHT22;65843;50.692;12.844;2024-01-11T05:02:34;18.70;52.60
76878;DHT22;65843;50.692;12.844;2024-01-11T05:03:35;18.70;52.60
76878;DHT22;65843;50.692;12.844;2024-01-11T05:04:36;18.60;52.50
76878;DHT22;65843;50.692;12.844;2024-01-11T05:05:37;18.60;52.50
76878;DHT22;65843;50.692;12.844;2024-01-11T05:06:38;18.60;52.50
76878;DHT22;65843;50.692;12.844;2024-01-11T05:07:39;18.60;52.60
76878;DHT22;65843;50.692;12.844;2024-01-11T05:08:40;18.60;52.30
76878;DHT22;65843;50.692;12.844;2024-01-11T05:09:41;18.60;52.50
76878;DHT22;65843;50.692;12.844;2024-01-11T05:10:41;18.60;52.40
76878;DHT22;65843;50.692;12.844;2024-01-11T05:11:43;18.60;52.20
76878;DHT22;65843;50.692;12.844;2024-01-11T05:12:44;18.60;52.30
76878;DHT22;65843;50.692;12.844;2024-01-11T05:13:45;18.50;52.00
76878;DHT22;65843;50.692;12.844;2024-01-11T05:14:48;18.60;52.20
76878;DHT22;65843;50.692;12.844;2024-01-11T05:15:49;18.50;52.10
76878;DHT22;65843;50.692;12.844;2024-01-11T05:16:50;18.50;51.90
76878;DHT22;65843;50.692;12.844;2024-01-11T05:17:51;18.50;51.90
76878;DHT22;65843;50.692;12.844;2024-01-11T05:18:52;18.50;51.80
76878;DHT22;65843;50.692;12.844;2024-01-11T05:19:53;18.50;51.90
76878;DHT22;65843;50.692;12.844;2024-01-11T05:20:54;18.50;52.10
76878;DHT22;65843;50.692;12.844;2024-01-11T05:21:55;18.50;51.90
76878;DHT22;65843;50.692;12.844;2024-01-11T05:22:57;18.50;51.90
76878;DHT22;65843;50.692;12.844;2024-01-11T05:23:58;18.50;51.90
76878;DHT22;65843;50.692;12.844;2024-01-11T05:24:59;18.50;51.80
76878;DHT22;65843;50.692;12.844;2024-01-11T05:26:00;18.50;51.90
76878;DHT22;65843;50.692;12.844;2024-01-11T05:27:00;18.50;51.80
76878;DHT22;65843;50.692;12.844;2024-01-11T05:28:02;18.50;51.90
76878;DHT22;65843;50.692;12.844;2024-01-11T05:29:03;18.50;51.70
76878;DHT22;65843;50.692;12.844;2024-01-11T05:30:07;18.50;52.00
76878;DHT22;65843;50.692;12.844;2024-01-11T05:31:12;18.50;51.80
76878;DHT22;65843;50.692;12.844;2024-01-11T05:32:13;18.50;51.70
76878;DHT22;65843;50.692;12.844;2024-01-11T05:33:13;18.50;52.00
76878;DHT22;65843;50.692;12.844;2024-01-11T05:34:14;18.50;52.00
76878;DHT22;65843;50.692;12.844;2024-01-11T05:35:15;18.50;51.80
76878;DHT22;65843;50.692;12.844;2024-01-11T05:36:16;18.50;51.70
76878;DHT22;65843;50.692;12.844;2024-01-11T05:37:17;18.50;51.70
76878;DHT22;65843;50.692;12.844;2024-01-11T05:38:18;18.50;51.70
76878;DHT22;65843;50.692;12.844;2024-01-11T05:39:19;18.50;51.90
76878;DHT22;65843;50.692;12.844;2024-01-11T05:40:20;18.50;51.70
76878;DHT22;65843;50.692;12.844;2024-01-11T05:41:20;18.50;51.90
76878;DHT22;65843;50.692;12.844;2024-01-11T05:42:21;18.50;51.60
76878;DHT22;65843;50.692;12.844;2024-01-11T05:43:22;18.50;51.40
76878;DHT22;65843;50.692;12.844;2024-01-11T05:44:26;18.50;51.10
76878;DHT22;65843;50.692;12.844;2024-01-11T05:45:27;18.50;50.60
76878;DHT22;65843;50.692;12.844;2024-01-11T05:46:28;18.50;50.20
76878;DHT22;65843;50.692;12.844;2024-01-11T05:47:29;18.50;49.90
76878;DHT22;65843;50.692;12.844;2024-01-11T05:48:29;18.50;50.00
76878;DHT22;65843;50.692;12.844;2024-01-11T05:49:30;18.50;49.60
76878;DHT22;65843;50.692;12.844;2024-01-11T05:50:31;18.50;49.60
76878;DHT22;65843;50.692;12.844;2024-01-11T05:51:32;18.50;49.60
76878;DHT22;65843;50.692;12.844;2024-01-11T05:52:33;18.50;49.40
76878;DHT22;65843;50.692;12.844;2024-01-11T05:53:34;18.40;49.10
76878;DHT22;65843;50.692;12.844;2024-01-11T05:54:36;18.40;48.90
76878;DHT22;65843;50.692;12.844;2024-01-11T05:55:37;18.40;48.60
76878;DHT22;65843;50.692;12.844;2024-01-11T05:56:38;18.40;48.90
76878;DHT22;65843;50.692;12.844;2024-01-11T05:57:39;18.40;48.50
76878;DHT22;65843;50.692;12.844;2024-01-11T05:58:39;18.40;48.80
76878;DHT22;65843;50.692;12.844;2024-01-11T05:59:44;18.30;48.70
76878;DHT22;65843;50.692;12.844;2024-01-11T06:00:46;18.30;47.60
76878;DHT22;65843;50.692;12.844;2024-01-11T06:01:47;18.30;47.60
76878;DHT22;65843;50.692;12.844;2024-01-11T06:02:48;18.30;48.00
76878;DHT22;65843;50.692;12.844;2024-01-11T06:03:48;18.30;48.20
76878;DHT22;65843;50.692;12.844;2024-01-11T06:04:49;18.30;48.50
76878;DHT22;65843;50.692;12.844;2024-01-11T06:05:50;18.30;48.40
76878;DHT22;65843;50.692;12.844;2024-01-11T06:06:51;18.30;48.50
76878;DHT22;65843;50.692;12.844;2024-01-11T06:07:52;18.30;48.70
76878;DHT22;65843;50.692;12.844;2024-01-11T06:08:53;18.20;48.90
76878;DHT22;65843;50.692;12.844;2024-01-11T06:09:53;18.20;49.00
76878;DHT22;65843;50.692;12.844;2024-01-11T06:10:54;18.20;49.10
76878;DHT22;65843;50.692;12.844;2024-01-11T06:11:55;18.20;49.10
76878;DHT22;65843;50.692;12.844;2024-01-11T06:12:56;18.20;49.20
76878;DHT22;65843;50.692;12.844;2024-01-11T06:13:57;18.20;49.20
76878;DHT22;65843;50.692;12.844;2024-01-11T06:14:58;18.20;49.40
76878;DHT22;65843;50.692;12.844;2024-01-11T06:15:59;18.20;49.20
76878;DHT22;65843;50.692;12.844;2024-01-11T06:17:00;18.10;49.40
76878;DHT22;65843;50.692;12.844;2024-01-11T06:18:00;18.10;49.40
76878;DHT22;65843;50.692;12.844;2024-01-11T06:19:01;18.20;49.40
76878;DHT22;65843;50.692;12.844;2024-01-11T06:20:02;18.20;49.40